Nearby METAR Reports

 

KGSP - Greer/Spartansbg, South Carolina, USA
Distance from station: E 4mi, 6km
Updated: Mon, 25-Jan-2021 5:08pm EST
Mist, Overcast
Mist, Overcast
 Wind from calm
Wind: Calm
Temperature: 48°F , 9°C
Dew Point: 45°F , 7°C
Humidity: 87%
Barometer: 29.92 inHg , 1013.2 hPa
Summary: Mist
Clouds: Overcast
Visibility: 1 mile , 2 km
Cloud details: Overcast 200 ft
2021/01/25 22:08 KGSP 252208Z 00000KT 1SM BR OVC002 09/07 A2992 RMK AO2 T00890072
KGMU - Greenville, South Carolina, USA
Distance from station: SW 5mi, 8km
Updated: Mon, 25-Jan-2021 4:53pm EST
Fog, Overcast
Fog, Overcast
 Wind from calm
Wind: Calm
Temperature: 50°F , 10°C
Dew Point: 48°F , 9°C
Humidity: 94%
Barometer: 29.92 inHg , 1013.2 hPa
Summary: Fog
Clouds: Overcast
Visibility: 1/4 mile , 0.4 km
Cloud details: Overcast 200 ft
2021/01/25 21:53 KGMU 252153Z 00000KT 1/4SM FG VV002 10/09 A2992 RMK AO2 SLP134 T01000094
 
KGYH - Greenville, South Carolina, USA
Distance from station: SSW 11mi, 18km
Updated: Mon, 25-Jan-2021 4:47pm EST
Fog, Overcast
Fog, Overcast
 Wind from SW
Wind: SW 3 mph , 6 km/h
Temperature: 50°F , 10°C
Dew Point: 50°F , 10°C
Humidity: 100%
Barometer: 29.92 inHg , 1013.2 hPa
Summary: Fog
Clouds: Overcast
Visibility: 1/2 mile , 0.8 km
Cloud details: Overcast 200 ft
2021/01/25 21:47 KGYH 252147Z 22003KT 1/2SM FG OVC002 10/10 A2992
KSPA - Spartanburg, South Carolina, USA
Distance from station: E 20mi, 32km
Updated: Mon, 25-Jan-2021 5:15pm EST
Mist, Overcast
Mist, Overcast
 Wind from calm
Wind: Calm
Temperature: 46°F , 8°C
Dew Point: 46°F , 8°C
Humidity: 100%
Barometer: 29.93 inHg , 1013.5 hPa
Summary: Mist
Clouds: Overcast
Visibility: 1 1/4 miles , 2 km
Cloud details: Overcast 200 ft
2021/01/25 22:15 KSPA 252215Z AUTO 00000KT 1 1/4SM BR OVC002 08/08 A2993 RMK AO2
 
KLQK - Pickens, South Carolina, USA
Distance from station: WSW 24mi, 39km
Updated: Mon, 25-Jan-2021 5:15pm EST
Fog, Overcast
Fog, Overcast
 Wind from calm
Wind: Calm
Temperature: 48°F , 9°C
Dew Point: 48°F , 9°C
Humidity: 100%
Barometer: 29.91 inHg , 1012.9 hPa
Summary: Fog
Clouds: Overcast
Visibility: 1/4 mile , 0.4 km
Cloud details: Overcast 300 ft
2021/01/25 22:15 KLQK 252215Z AUTO 00000KT 1/4SM FG OVC003 09/09 A2991 RMK AO2 T00930093
KLUX - Laurens, South Carolina, USA
Distance from station: SE 33mi, 54km
Updated: Mon, 25-Jan-2021 5:15pm EST
Partly cloudy
Partly cloudy
 Wind from calm
Wind: Calm
Temperature: 52°F , 11°C
Dew Point: 48°F , 9°C
Humidity: 88%
Barometer: 29.92 inHg , 1013.2 hPa
Clouds: Partly cloudy
Visibility: 7 miles , 11 km
Cloud details: Partly cloudy 1500 ft
2021/01/25 22:15 KLUX 252215Z AUTO 00000KT 7SM SCT015 11/09 A2992 RMK AO2
 
KAND - Anderson, South Carolina, USA
Distance from station: SW 37mi, 59km
Updated: Mon, 25-Jan-2021 4:56pm EST
Fog, Overcast
Fog, Overcast
 Wind from NW
Wind: NW 3 mph , 6 km/h
Temperature: 50°F , 10°C
Dew Point: 48°F , 9°C
Humidity: 94%
Barometer: 29.92 inHg , 1013.2 hPa
Summary: Fog
Clouds: Overcast
Visibility: 1/4 mile , 0.4 km
Cloud details: Overcast 200 ft
2021/01/25 21:56 KAND 252156Z AUTO 31003KT 1/4SM FG VV002 10/09 A2992 RMK AO2 SLP130 T01000094
KCEU - Clemson, South Carolina, USA
Distance from station: WSW 37mi, 60km
Updated: Mon, 25-Jan-2021 4:54pm EST
Fog, Overcast
Fog, Overcast
 Wind from calm
Wind: Calm
Temperature: 48°F , 9°C
Dew Point: 48°F , 9°C
Humidity: 100%
Barometer: 29.93 inHg , 1013.5 hPa
Summary: Fog
Clouds: Overcast
Visibility: 1/4 mile , 0.4 km
Cloud details: Overcast 200 ft
2021/01/25 21:54 KCEU 252154Z AUTO 00000KT 1/4SM FG VV002 09/09 A2993 RMK AO2 SLP134 T00940089
 
KAVL - Asheville, North Carolina, USA
Distance from station: NNW 40mi, 64km
Updated: Mon, 25-Jan-2021 4:54pm EST
Overcast
Overcast
 Wind from SE
Wind: SE 7 mph , 11 km/h
Temperature: 57°F , 14°C
Dew Point: 54°F , 12°C
Humidity: 88%
Barometer: 29.86 inHg , 1011.2 hPa
Clouds: Overcast
Visibility: 10 miles , 16 km
Cloud details: Overcast 1100 ft
2021/01/25 21:54 KAVL 252154Z 14006KT 10SM OVC011 14/12 A2986 RMK AO2 SLP105 T01390122
KFQD - Rutherfordton, North Carolina, USA
Distance from station: NNE 41mi, 66km
Updated: Mon, 25-Jan-2021 5:15pm EST
Mist, Overcast
Mist, Overcast
 Wind from calm
Wind: Calm
Temperature: 43°F , 6°C
Dew Point: 43°F , 6°C
Humidity: 100%
Barometer: 29.92 inHg , 1013.2 hPa
Summary: Mist
Clouds: Overcast
Visibility: 1 1/2 miles , 2.4 km
Cloud details: Overcast 300 ft
2021/01/25 22:15 KFQD 252215Z AUTO 00000KT 1 1/2SM BR OVC003 06/06 A2992 RMK AO2
 
KGRD - Greenwood, South Carolina, USA
Distance from station: S 45mi, 73km
Updated: Mon, 25-Jan-2021 4:56pm EST
Few Clouds
Few Clouds
 Wind from N
Wind: N 3 mph , 6 km/h
Temperature: 54°F , 12°C
Dew Point: 52°F , 11°C
Humidity: 94%
Barometer: 29.92 inHg , 1013.2 hPa
Clouds: Few Clouds
Visibility: 7 miles , 11 km
Cloud details: Few Clouds 9000 ft
2021/01/25 21:56 KGRD 252156Z AUTO 36003KT 7SM FEW090 12/11 A2992 RMK AO2 SLP132 T01220106
KEHO - Shelby Muni, North Carolina, USA
Distance from station: ENE 46mi, 74km
Updated: Mon, 25-Jan-2021 5:15pm EST
Light rain, Overcast
Light rain, Overcast
 Wind from calm
Wind: Calm
Temperature: 46°F , 8°C
Dew Point: 46°F , 8°C
Humidity: 100%
Barometer: 29.92 inHg , 1013.2 hPa
Summary: Light rain
Clouds: Overcast
Visibility: 1 mile , 2 km
Cloud details: Overcast 200 ft
2021/01/25 22:15 KEHO 252215Z AUTO 00000KT 1SM -RA OVC002 08/08 A2992 RMK AO2 P0002 T00760076